createdAt,value
2017-12-03T00:00:03.268Z,25.33
2017-12-03T00:02:36.526Z,26.73
2017-12-03T00:05:09.583Z,25.47
2017-12-03T00:07:43.008Z,27.07
2017-12-03T00:10:16.353Z,27.53
2017-12-03T00:12:50.498Z,26.57
2017-12-03T00:15:23.672Z,27.50
2017-12-03T00:17:56.193Z,27.27
2017-12-03T00:20:28.767Z,27.90
2017-12-03T00:23:01.289Z,28.90
2017-12-03T00:25:33.824Z,28.13
2017-12-03T00:28:07.102Z,28.73
2017-12-03T00:30:39.895Z,28.53
2017-12-03T00:33:13.235Z,28.33
2017-12-03T00:35:45.777Z,28.10
2017-12-03T00:38:19.056Z,28.37
2017-12-03T00:40:51.597Z,28.40
2017-12-03T00:43:24.915Z,28.37
2017-12-03T00:45:58.436Z,27.73
2017-12-03T00:48:30.985Z,27.90
2017-12-03T00:51:03.525Z,27.67
2017-12-03T00:53:36.032Z,29.27
2017-12-03T00:56:08.573Z,29.33
2017-12-03T00:58:41.081Z,27.33
2017-12-03T01:01:13.613Z,30.90
2017-12-03T01:03:46.125Z,30.17
2017-12-03T01:06:19.020Z,29.80
2017-12-03T01:08:51.556Z,30.00
2017-12-03T01:11:24.932Z,30.67
2017-12-03T01:13:57.449Z,30.40
2017-12-03T01:16:30.510Z,31.23
2017-12-03T01:19:04.402Z,29.00
2017-12-03T01:21:39.040Z,30.80
2017-12-03T01:24:14.239Z,32.17
2017-12-03T01:26:48.031Z,31.23
2017-12-03T01:29:21.145Z,29.13
2017-12-03T01:31:54.923Z,31.57
2017-12-03T01:34:27.948Z,30.73
2017-12-03T01:37:01.901Z,31.87
2017-12-03T01:39:37.368Z,31.40
2017-12-03T01:42:13.179Z,30.30
2017-12-03T01:44:47.673Z,29.17
2017-12-03T01:47:21.728Z,31.03
2017-12-03T01:49:55.596Z,29.10
2017-12-03T01:52:32.176Z,31.57
2017-12-03T01:55:07.661Z,31.83
2017-12-03T01:57:42.661Z,28.47
2017-12-03T02:00:15.473Z,29.93
2017-12-03T02:02:48.121Z,31.00
2017-12-03T02:05:20.886Z,30.43
2017-12-03T02:07:54.223Z,31.97
2017-12-03T02:10:26.789Z,30.23
2017-12-03T02:12:59.417Z,30.53
2017-12-03T02:15:31.988Z,29.23
2017-12-03T02:18:04.575Z,31.27
2017-12-03T02:20:37.701Z,32.67
2017-12-03T02:23:10.443Z,34.30
2017-12-03T02:25:43.042Z,31.47
2017-12-03T02:28:15.607Z,32.00
2017-12-03T02:30:48.270Z,32.33
2017-12-03T02:33:20.853Z,32.30
2017-12-03T02:35:55.282Z,29.63
2017-12-03T02:38:27.841Z,30.30
2017-12-03T02:41:01.501Z,33.43
2017-12-03T02:43:34.393Z,32.17
2017-12-03T02:46:07.290Z,33.37
2017-12-03T02:48:40.042Z,32.37
2017-12-03T02:51:13.096Z,32.67
2017-12-03T02:53:46.663Z,32.73
2017-12-03T02:56:19.619Z,33.13
2017-12-03T02:58:52.237Z,34.03
2017-12-03T03:01:24.769Z,32.77
2017-12-03T03:03:58.073Z,33.03
2017-12-03T03:06:31.506Z,32.37
2017-12-03T03:09:04.078Z,34.47
2017-12-03T03:11:37.091Z,34.63
2017-12-03T03:14:10.214Z,35.60
2017-12-03T03:16:43.900Z,32.67
2017-12-03T03:19:17.843Z,33.83
2017-12-03T03:21:51.973Z,33.20
2017-12-03T03:24:24.999Z,33.33
2017-12-03T03:26:58.050Z,33.73
2017-12-03T03:29:31.956Z,32.53
2017-12-03T03:32:05.811Z,32.47
2017-12-03T03:34:39.668Z,33.33
2017-12-03T03:37:13.616Z,32.67
2017-12-03T03:39:46.887Z,34.03
2017-12-03T03:42:19.891Z,30.23
2017-12-03T03:44:53.496Z,33.53
2017-12-03T03:47:26.880Z,32.27
2017-12-03T03:50:00.017Z,29.17
2017-12-03T03:52:34.249Z,33.20
2017-12-03T03:55:08.398Z,32.23
2017-12-03T03:57:42.211Z,29.43
2017-12-03T04:00:16.964Z,30.47
2017-12-03T04:02:51.253Z,31.20
2017-12-03T04:05:25.660Z,29.80
2017-12-03T04:07:59.688Z,29.60
2017-12-03T04:10:33.662Z,29.20
2017-12-03T04:13:06.811Z,28.60
2017-12-03T04:15:40.048Z,28.07
2017-12-03T04:18:13.086Z,27.10
2017-12-03T04:20:46.063Z,27.97
2017-12-03T04:23:19.100Z,30.33
2017-12-03T04:25:52.243Z,27.90
2017-12-03T04:28:25.438Z,29.40
2017-12-03T04:30:59.309Z,28.20
2017-12-03T04:33:32.595Z,28.37
2017-12-03T04:36:06.402Z,27.57
2017-12-03T04:38:39.524Z,26.87
2017-12-03T04:41:12.630Z,27.97
2017-12-03T04:43:47.341Z,26.33
2017-12-03T04:46:20.338Z,26.23
2017-12-03T04:48:53.215Z,25.37
2017-12-03T04:51:27.036Z,24.07
2017-12-03T04:54:01.320Z,24.97
2017-12-03T04:56:34.513Z,24.83
2017-12-03T04:59:07.496Z,25.87
2017-12-03T05:01:41.994Z,21.93
2017-12-03T05:04:15.127Z,23.33
2017-12-03T05:06:48.351Z,22.60
2017-12-03T05:09:22.116Z,21.73
2017-12-03T05:11:55.143Z,22.93
2017-12-03T05:14:28.830Z,21.87
2017-12-03T05:17:01.941Z,21.23
2017-12-03T05:19:34.978Z,21.67
2017-12-03T05:22:08.147Z,21.40
2017-12-03T05:24:42.447Z,21.83
2017-12-03T05:27:16.285Z,20.77
2017-12-03T05:29:49.387Z,20.37
2017-12-03T05:32:22.436Z,19.83
2017-12-03T05:34:55.505Z,16.47
2017-12-03T05:37:28.565Z,17.70
2017-12-03T05:40:03.041Z,17.37
2017-12-03T05:42:37.452Z,17.13
2017-12-03T05:45:11.319Z,18.60
2017-12-03T05:47:44.482Z,17.63
2017-12-03T05:50:18.317Z,16.37
2017-12-03T05:52:51.495Z,16.47
2017-12-03T05:55:24.889Z,16.17
2017-12-03T05:57:58.135Z,16.17
2017-12-03T06:00:31.282Z,14.60
2017-12-03T06:03:05.866Z,16.90
2017-12-03T06:05:39.310Z,15.53
2017-12-03T06:08:12.431Z,14.07
2017-12-03T06:10:45.640Z,13.97
2017-12-03T06:13:19.134Z,14.13
2017-12-03T06:15:51.989Z,13.57
2017-12-03T06:18:25.739Z,14.17
2017-12-03T06:20:58.946Z,13.07
2017-12-03T06:23:32.118Z,11.70
2017-12-03T06:26:05.767Z,11.70
2017-12-03T06:28:39.093Z,10.97
2017-12-03T06:31:13.131Z,12.07
2017-12-03T06:33:46.078Z,11.13
2017-12-03T06:38:59.562Z,9.33
2017-12-03T06:41:32.571Z,11.23
2017-12-03T06:44:05.846Z,10.20
2017-12-03T06:46:39.769Z,10.63
2017-12-03T06:49:15.493Z,12.23
2017-12-03T06:51:48.313Z,10.73
2017-12-03T06:54:21.594Z,10.97
2017-12-03T06:56:55.727Z,10.00
2017-12-03T06:59:29.686Z,9.70
2017-12-03T07:02:03.735Z,9.97
2017-12-03T07:04:37.395Z,9.87
2017-12-03T07:07:12.610Z,9.97
2017-12-03T07:09:46.727Z,9.53
2017-12-03T07:12:20.504Z,9.90
2017-12-03T07:14:55.652Z,9.10
2017-12-03T07:17:30.393Z,9.73
2017-12-03T07:20:03.498Z,9.33
2017-12-03T07:22:36.703Z,9.63
2017-12-03T07:25:09.791Z,9.53
2017-12-03T07:27:44.573Z,17.80
2017-12-03T07:30:17.549Z,15.77
2017-12-03T07:32:50.406Z,13.00
2017-12-03T07:35:23.406Z,13.90
2017-12-03T07:37:56.246Z,10.27
2017-12-03T07:40:29.422Z,11.13
2017-12-03T07:43:03.289Z,11.73
2017-12-03T07:45:36.468Z,13.90
2017-12-03T07:48:10.380Z,12.60
2017-12-03T07:50:45.198Z,13.40
2017-12-03T07:53:18.131Z,9.73
2017-12-03T07:55:51.071Z,10.07
2017-12-03T07:58:24.209Z,11.03
2017-12-03T08:00:57.321Z,9.63
2017-12-03T08:03:31.820Z,9.87
2017-12-03T08:06:04.952Z,9.07
2017-12-03T08:08:38.057Z,8.67
2017-12-03T08:11:12.857Z,9.50
2017-12-03T08:13:46.551Z,10.27
2017-12-03T08:16:20.323Z,10.70
2017-12-03T08:18:54.161Z,12.20
2017-12-03T08:21:27.435Z,17.97
2017-12-03T08:24:01.516Z,13.37
2017-12-03T08:26:34.510Z,12.50
2017-12-03T08:29:07.624Z,12.23
2017-12-03T08:31:42.361Z,12.27
2017-12-03T08:34:16.923Z,12.07
2017-12-03T08:36:49.861Z,11.57
2017-12-03T08:39:23.593Z,11.67
2017-12-03T08:41:57.540Z,12.90
2017-12-03T08:44:30.498Z,13.40
2017-12-03T08:47:03.523Z,13.97
2017-12-03T08:49:36.397Z,12.97
2017-12-03T08:52:09.557Z,14.33
2017-12-03T08:54:42.428Z,13.90
2017-12-03T08:57:15.403Z,13.57
2017-12-03T08:59:49.401Z,14.13
2017-12-03T09:02:22.377Z,14.07
2017-12-03T09:04:55.248Z,13.20
2017-12-03T09:07:28.978Z,14.87
2017-12-03T09:10:02.765Z,13.90
2017-12-03T09:12:35.721Z,13.87
2017-12-03T09:15:08.602Z,14.40
2017-12-03T09:17:43.198Z,13.87
2017-12-03T09:20:16.566Z,15.03
2017-12-03T09:22:49.555Z,14.50
2017-12-03T09:25:22.630Z,14.07
2017-12-03T09:27:56.473Z,16.03
2017-12-03T09:30:30.391Z,14.20
2017-12-03T09:33:03.477Z,14.80
2017-12-03T09:35:37.123Z,15.67
2017-12-03T09:38:10.141Z,16.30
2017-12-03T09:40:43.903Z,15.90
2017-12-03T09:43:17.129Z,16.37
2017-12-03T09:45:50.044Z,16.80
2017-12-03T09:48:23.192Z,17.07
2017-12-03T09:50:57.006Z,16.43
2017-12-03T09:53:30.795Z,16.10
2017-12-03T09:56:03.715Z,15.30
2017-12-03T09:58:36.702Z,16.33
2017-12-03T10:01:10.349Z,16.67
2017-12-03T10:03:44.695Z,17.40
2017-12-03T10:06:18.689Z,18.07
2017-12-03T10:08:51.817Z,18.80
2017-12-03T10:11:24.857Z,18.27
2017-12-03T10:13:57.905Z,17.90
2017-12-03T10:16:31.532Z,17.60
2017-12-03T10:19:04.594Z,17.40
2017-12-03T10:21:37.553Z,20.07
2017-12-03T10:24:11.300Z,18.77
2017-12-03T10:26:44.363Z,19.47
2017-12-03T10:29:17.506Z,21.00
2017-12-03T10:31:51.347Z,20.50
2017-12-03T10:34:24.369Z,20.67
2017-12-03T10:36:57.392Z,20.40
2017-12-03T10:39:31.070Z,21.27
2017-12-03T10:42:04.049Z,23.13
2017-12-03T10:44:36.976Z,24.10
2017-12-03T10:47:09.905Z,21.60
2017-12-03T10:49:42.938Z,22.53
2017-12-03T10:52:17.465Z,21.30
2017-12-03T10:54:50.512Z,21.70
2017-12-03T10:57:23.478Z,22.93
2017-12-03T10:59:56.408Z,19.93
2017-12-03T11:02:29.252Z,19.17
2017-12-03T11:05:02.943Z,20.37
2017-12-03T11:07:35.844Z,18.77
2017-12-03T11:10:08.894Z,18.47
2017-12-03T11:12:41.742Z,19.00
2017-12-03T11:15:14.708Z,17.50
2017-12-03T11:17:48.616Z,16.37
2017-12-03T11:20:21.592Z,17.53
2017-12-03T11:22:54.466Z,17.87
2017-12-03T11:25:27.422Z,19.17
2017-12-03T11:28:01.227Z,20.70
2017-12-03T11:30:34.122Z,19.07
2017-12-03T11:33:07.034Z,17.80
2017-12-03T11:35:40.756Z,18.27
2017-12-03T11:38:13.597Z,19.87
2017-12-03T11:40:46.563Z,20.23
2017-12-03T11:43:19.605Z,20.00
2017-12-03T11:45:52.574Z,17.27
2017-12-03T11:48:25.499Z,19.23
2017-12-03T11:50:59.063Z,18.90
2017-12-03T11:53:32.649Z,20.13
2017-12-03T11:56:06.549Z,21.80
2017-12-03T11:58:40.102Z,20.70
2017-12-03T12:01:12.949Z,20.70
2017-12-03T12:03:45.943Z,18.83
2017-12-03T12:06:19.682Z,16.27
2017-12-03T12:08:52.540Z,19.10
2017-12-03T12:11:25.441Z,19.90
2017-12-03T12:13:58.402Z,21.93
2017-12-03T12:16:31.555Z,19.97
2017-12-03T12:19:04.514Z,17.73
2017-12-03T12:21:38.899Z,24.03
2017-12-03T12:24:11.873Z,26.73
2017-12-03T12:26:44.440Z,24.90
2017-12-03T12:29:18.074Z,24.37
2017-12-03T12:31:51.898Z,24.23
2017-12-03T12:34:25.662Z,21.27
2017-12-03T12:36:59.539Z,24.63
2017-12-03T12:39:33.251Z,17.33
2017-12-03T12:42:07.093Z,25.33
2017-12-03T12:44:40.141Z,21.43
2017-12-03T12:47:14.122Z,20.53
2017-12-03T12:49:47.915Z,20.23
2017-12-03T12:52:20.740Z,20.87
2017-12-03T12:54:54.696Z,18.17
2017-12-03T12:57:27.865Z,21.03
2017-12-03T13:00:01.946Z,18.77
2017-12-03T13:02:35.533Z,17.60
2017-12-03T13:05:08.513Z,17.90
2017-12-03T13:07:41.652Z,18.20
2017-12-03T13:10:14.645Z,17.63
2017-12-03T13:12:48.354Z,19.33
2017-12-03T13:15:21.264Z,16.93
2017-12-03T13:17:54.206Z,20.20
2017-12-03T13:20:27.803Z,20.03
2017-12-03T13:23:01.482Z,19.33
2017-12-03T13:25:35.157Z,18.50
2017-12-03T13:28:08.702Z,16.43
2017-12-03T13:30:42.569Z,21.23
2017-12-03T13:33:16.365Z,21.80
2017-12-03T13:35:50.737Z,20.47
2017-12-03T13:38:23.679Z,17.07
2017-12-03T13:40:59.483Z,15.77
2017-12-03T13:43:32.486Z,15.90
2017-12-03T13:46:05.313Z,15.77
2017-12-03T13:48:38.370Z,16.70
2017-12-03T13:51:11.480Z,20.30
2017-12-03T13:53:45.265Z,16.63
2017-12-03T13:56:18.037Z,18.17
2017-12-03T13:58:51.600Z,17.20
2017-12-03T14:01:24.601Z,18.33
2017-12-03T14:03:57.263Z,16.43
2017-12-03T14:06:30.151Z,17.03
2017-12-03T14:09:03.893Z,14.67
2017-12-03T14:11:36.638Z,16.47
2017-12-03T14:14:09.406Z,15.27
2017-12-03T14:16:42.769Z,17.33
2017-12-03T14:19:15.469Z,15.10
2017-12-03T14:21:48.756Z,16.63
2017-12-03T14:24:21.404Z,15.13
2017-12-03T14:26:54.097Z,16.83
2017-12-03T14:29:27.393Z,13.67
2017-12-03T14:31:59.901Z,17.17
2017-12-03T14:34:32.424Z,15.97
2017-12-03T14:37:05.701Z,14.57
2017-12-03T14:39:38.289Z,18.73
2017-12-03T14:42:10.798Z,15.13
2017-12-03T14:44:43.346Z,16.20
2017-12-03T14:47:16.625Z,20.60
2017-12-03T14:49:49.160Z,19.67
2017-12-03T14:52:22.438Z,18.37
2017-12-03T14:54:54.975Z,18.77
2017-12-03T14:57:27.496Z,18.47
2017-12-03T15:00:00.798Z,17.33
2017-12-03T15:02:34.069Z,21.80
2017-12-03T15:05:06.600Z,17.00
2017-12-03T15:07:39.109Z,24.33
2017-12-03T15:10:11.635Z,23.90
2017-12-03T15:12:44.912Z,29.10
2017-12-03T15:15:17.460Z,28.63
2017-12-03T15:17:50.737Z,20.03
2017-12-03T15:20:23.276Z,23.90
2017-12-03T15:22:56.556Z,21.17
2017-12-03T15:25:29.092Z,19.43
2017-12-03T15:28:02.360Z,21.73
2017-12-03T15:30:34.905Z,20.57
2017-12-03T15:33:08.184Z,25.57
2017-12-03T15:35:40.722Z,22.93
2017-12-03T15:38:13.230Z,25.87
2017-12-03T15:40:46.547Z,24.20
2017-12-03T15:43:19.057Z,21.60
2017-12-03T15:45:52.368Z,21.33
2017-12-03T15:48:25.641Z,26.03
2017-12-03T15:50:58.169Z,20.87
2017-12-03T15:53:30.677Z,22.00
2017-12-03T15:56:03.219Z,22.73
2017-12-03T15:58:35.734Z,23.70
2017-12-03T16:01:08.333Z,22.63
2017-12-03T16:03:40.846Z,21.23
2017-12-03T16:06:13.389Z,22.83
2017-12-03T16:08:46.678Z,25.20
2017-12-03T16:11:19.225Z,26.17
2017-12-03T16:13:52.503Z,27.47
2017-12-03T16:16:25.028Z,24.57
2017-12-03T16:18:57.587Z,24.57
2017-12-03T16:21:30.148Z,29.13
2017-12-03T16:24:03.420Z,24.93
2017-12-03T16:26:36.717Z,25.87
2017-12-03T16:29:09.733Z,23.17
2017-12-03T16:31:42.258Z,24.33
2017-12-03T16:34:14.778Z,26.37
2017-12-03T16:36:47.323Z,30.37
2017-12-03T16:39:19.844Z,29.27
2017-12-03T16:41:52.447Z,29.47
2017-12-03T16:44:25.020Z,33.10
2017-12-03T16:46:58.344Z,26.90
2017-12-03T16:49:35.597Z,32.07
2017-12-03T16:52:08.142Z,31.67
2017-12-03T16:54:40.653Z,35.43
2017-12-03T16:57:13.968Z,43.43
2017-12-03T16:59:46.513Z,26.77
2017-12-03T17:02:19.058Z,45.57
2017-12-03T17:04:51.566Z,29.33
2017-12-03T17:07:24.103Z,33.47
2017-12-03T17:09:56.608Z,33.57
2017-12-03T17:12:29.140Z,30.83
2017-12-03T17:15:01.656Z,27.97
2017-12-03T17:17:34.180Z,25.80
2017-12-03T17:20:07.453Z,27.93
2017-12-03T17:22:40.796Z,35.70
2017-12-03T17:25:13.305Z,32.97
2017-12-03T17:27:45.833Z,33.17
2017-12-03T17:30:19.163Z,24.13
2017-12-03T17:32:51.672Z,28.53
2017-12-03T17:35:24.181Z,23.87
2017-12-03T17:37:56.725Z,32.70
2017-12-03T17:40:29.236Z,41.63
2017-12-03T17:43:01.769Z,26.47
2017-12-03T17:45:34.293Z,32.80
2017-12-03T17:48:06.824Z,27.83
2017-12-03T17:50:39.455Z,39.07
2017-12-03T17:53:12.804Z,29.73
2017-12-03T17:55:45.325Z,30.70
2017-12-03T17:58:17.860Z,31.97
2017-12-03T18:00:50.360Z,28.80
2017-12-03T18:03:22.901Z,38.27
2017-12-03T18:05:55.455Z,26.20
2017-12-03T18:08:27.953Z,29.87
2017-12-03T18:11:00.463Z,30.60
2017-12-03T18:13:32.997Z,36.13
2017-12-03T18:16:06.282Z,24.73
2017-12-03T18:18:38.806Z,27.73
2017-12-03T18:21:11.317Z,40.40
2017-12-03T18:23:44.609Z,27.30
2017-12-03T18:26:17.116Z,30.10
2017-12-03T18:28:50.089Z,32.07
2017-12-03T18:31:22.597Z,26.67
2017-12-03T18:33:55.145Z,30.37
2017-12-03T18:36:28.421Z,27.13
2017-12-03T18:39:00.977Z,31.07
2017-12-03T18:41:34.253Z,35.00
2017-12-03T18:44:06.798Z,29.43
2017-12-03T18:46:40.077Z,25.87
2017-12-03T18:49:12.623Z,27.23
2017-12-03T18:51:45.132Z,31.97
2017-12-03T18:54:18.452Z,26.30
2017-12-03T18:56:51.725Z,27.23
2017-12-03T18:59:24.297Z,44.43
2017-12-03T19:01:56.865Z,30.10
2017-12-03T19:04:29.398Z,32.63
2017-12-03T19:07:01.904Z,25.13
2017-12-03T19:09:34.434Z,28.00
2017-12-03T19:12:06.942Z,32.23
2017-12-03T19:14:40.304Z,30.00
2017-12-03T19:17:13.579Z,30.57
2017-12-03T19:19:46.108Z,39.83
2017-12-03T19:22:18.818Z,27.27
2017-12-03T19:24:51.366Z,31.73
2017-12-03T19:27:23.872Z,31.37
2017-12-03T19:29:56.413Z,31.03
2017-12-03T19:32:28.932Z,34.93
2017-12-03T19:35:02.225Z,30.20
2017-12-03T19:37:34.729Z,31.97
2017-12-03T19:40:07.255Z,35.90
2017-12-03T19:42:39.764Z,34.97
2017-12-03T19:45:13.080Z,37.03
2017-12-03T19:47:46.357Z,31.20
2017-12-03T19:50:18.893Z,31.50
2017-12-03T19:52:51.395Z,26.23
2017-12-03T19:55:24.693Z,28.53
2017-12-03T19:57:57.209Z,41.40
2017-12-03T20:00:29.761Z,38.20
2017-12-03T20:03:02.273Z,30.60
2017-12-03T20:05:34.825Z,34.07
2017-12-03T20:08:08.109Z,26.30
2017-12-03T20:10:40.758Z,33.50
2017-12-03T20:13:14.054Z,28.70
2017-12-03T20:15:46.583Z,28.73
2017-12-03T20:18:19.869Z,32.63
2017-12-03T20:20:52.422Z,46.20
2017-12-03T20:23:24.938Z,33.97
2017-12-03T20:25:57.484Z,33.53
2017-12-03T20:28:30.002Z,38.93
2017-12-03T20:31:03.512Z,48.87
2017-12-03T20:33:36.800Z,40.33
2017-12-03T20:36:09.352Z,33.20
2017-12-03T20:38:42.635Z,48.93
2017-12-03T20:41:15.181Z,41.63
2017-12-03T20:43:48.451Z,44.43
2017-12-03T20:46:20.993Z,42.47
2017-12-03T20:48:54.261Z,50.37
2017-12-03T20:51:26.792Z,38.57
2017-12-03T20:53:59.297Z,36.93
2017-12-03T20:56:31.828Z,48.40
2017-12-03T20:59:05.105Z,46.20
2017-12-03T21:01:38.454Z,33.87
2017-12-03T21:04:10.957Z,38.17
2017-12-03T21:06:43.504Z,38.43
2017-12-03T21:09:16.005Z,29.77
2017-12-03T21:11:48.544Z,31.03
2017-12-03T21:14:21.055Z,29.07
2017-12-03T21:16:53.581Z,29.20
2017-12-03T21:19:26.857Z,41.63
2017-12-03T21:21:59.401Z,39.80
2017-12-03T21:24:32.677Z,43.07
2017-12-03T21:27:05.219Z,35.07
2017-12-03T21:29:38.508Z,37.60
2017-12-03T21:32:11.042Z,35.20
2017-12-03T21:34:44.333Z,32.47
2017-12-03T21:37:16.865Z,46.00
2017-12-03T21:39:50.137Z,45.00
2017-12-03T21:42:22.669Z,38.67
2017-12-03T21:44:55.944Z,37.67
2017-12-03T21:47:28.482Z,35.53
2017-12-03T21:50:00.989Z,33.97
2017-12-03T21:52:34.289Z,25.70
2017-12-03T21:55:06.798Z,30.20
2017-12-03T21:57:39.323Z,38.40
2017-12-03T22:00:16.579Z,37.13
2017-12-03T22:02:49.108Z,39.23
2017-12-03T22:05:21.617Z,42.30
2017-12-03T22:07:54.150Z,34.83
2017-12-03T22:10:27.186Z,41.90
2017-12-03T22:13:01.027Z,42.13
2017-12-03T22:15:35.444Z,34.67
2017-12-03T22:18:08.562Z,36.87
2017-12-03T22:20:41.931Z,38.87
2017-12-03T22:23:15.001Z,35.93
2017-12-03T22:25:47.948Z,37.27
2017-12-03T22:28:20.760Z,33.03
2017-12-03T22:30:53.272Z,30.07
2017-12-03T22:33:25.806Z,33.63
2017-12-03T22:35:59.164Z,31.50
2017-12-03T22:38:32.165Z,33.47
2017-12-03T22:41:05.103Z,39.30
2017-12-03T22:43:38.828Z,32.33
2017-12-03T22:46:11.831Z,32.50
2017-12-03T22:48:44.854Z,26.90
2017-12-03T22:51:17.982Z,24.03
2017-12-03T22:53:51.165Z,26.67
2017-12-03T22:56:24.059Z,30.93
2017-12-03T22:58:57.712Z,34.17
2017-12-03T23:01:30.616Z,33.83
2017-12-03T23:04:03.386Z,26.53
2017-12-03T23:06:36.997Z,29.57
2017-12-03T23:09:11.060Z,30.30
2017-12-03T23:11:44.956Z,30.83
2017-12-03T23:14:18.936Z,29.50
2017-12-03T23:16:52.617Z,26.10
2017-12-03T23:19:27.272Z,32.63
2017-12-03T23:22:00.223Z,26.33
2017-12-03T23:24:33.266Z,27.10
2017-12-03T23:27:07.200Z,27.37
2017-12-03T23:29:39.870Z,26.37
2017-12-03T23:32:12.819Z,25.30
2017-12-03T23:34:45.946Z,25.40
2017-12-03T23:37:19.021Z,24.73
2017-12-03T23:39:52.033Z,24.67
2017-12-03T23:42:24.707Z,24.50
2017-12-03T23:44:57.571Z,20.40
2017-12-03T23:47:32.361Z,21.63
2017-12-03T23:50:06.217Z,17.83
2017-12-03T23:52:40.071Z,19.23
2017-12-03T23:55:13.195Z,20.37
2017-12-03T23:57:46.287Z,17.57
